Chico, TX (76431)

8:03 PM CDT on August 30, 2015 (GMT -0500)
2 Miles South of Alvord | | Change Station
CLOSE
Current Station
Personal Weather Station
Location: Alvord, TX
Elevation: 853 ft
Nearby Weather Stations

Elev 853 ft 33.33 °N, 97.70 °W | Updated 4 minutes ago

Clear
Clear
87.1 °F
Feels Like 89 °F
N
6.3
Wind Variable Wind from South

Today
High -- | Low -- °F
--% Chance of Precip.
Yesterday
High -- | Low -- °F
Precip. -- in
7:03 AM 7:59 PM
Full, 98% visible
Pressure 29.93 in
Visibility 10.0 miles
Clouds Clear
Heat Index 89 °F
Dew Point 64 °F
Humidity 47%
Rainfall 0.00 in
Snow Depth Not available.
UV 0 out of 12
Pollen 8.70 out of 12
Air Quality Not available.
Flu Activity Not available.
METAR KXBP 310055Z AUTO 18006KT 10SM CLR 31/17 A2993 RMK AO2 T03050170
Pressure 29.93 in
Visibility 10.0 miles
Clouds Clear
Heat Index 89 °F
Dew Point 64 °F
Humidity 47%
Rainfall 0.00 in
Snow Depth Not available.
UV 0 out of 12
Pollen 8.70 out of 12
Air Quality Not available.
Flu Activity Not available.
METAR KXBP 310055Z AUTO 18006KT 10SM CLR 31/17 A2993 RMK AO2 T03050170
Nowcast | as of 6:13 PM CDT on August 30, 2015

Isolated thunderstorms are possible generally along and south of I-30...and east of I-35...through the evening hours. At 6 PM...the strongest storms were located east of The Temple area and were moving little. Brief heavy rain and gusty winds can be expected in the stronger storms.

×

10-Day Weather Forecast

×

Almanac

Astronomy

Aug. 30, 2015 Rise Set
Actual Time
Civil Twilight
Nautical Twilight
Astronomical Twilight
Moon
Length of Visible Light
Length of Day
Tomorrow will be .
, % of the Moon is Illuminated

Today's Extremes

State Highs State Lows

Community

WunderPhotos

Upload Photos

1,851,126 photos uploaded!

WunderBlogs® & News

Nearby

Air Quality

  Air Quality AQ Index Pollutant
Not available.

Snow Depth

Station Depth Elevation

Earthquake Activity

City Distance Mag. Time & Date
Minimum magnitude displayed is 2.5.

Coastal Water Temperatures

Place Temperature

Stations

Nearby Weather Stations

Station Location Temp. Windchill Dew Point Humidity Wind Precip. Elev Updated Type